Tiempo atmosférico en la estación meteorológica de Medina De Pomar, Burgos (580 m.)



Fecha
DESCASC
Temp. máxima en grados centígrados (hora)
DESCASC
Temp. mínima en grados centígrados (hora)
DESCASC
Temp. media en grados centígrados
DESCASC
Racha de viento máxima en m/sg (hora)
DESCASC
Velocidad máxima media en intervalos de 10 minutos(hora)
DESCASC
Precipitaciones diarias en mm
DESCASC
Precipitaciones de 00:00 a 06:00 en mm
DESCASC
Precipitaciones de 06:00 a 12:00 en mm
DESCASC
Precipitaciones de 12:00 a 18:00 en mm
DESCASC
Precipitaciones de 18:00 a 24:00 en mm
DESCASC
19-09-2019 26.4 (16:30) 11.2 (05:10) 18.8 6.39 (21:10) 3.33 (21:00) 0 0 0 0 0
18-09-2019 23.7 (17:00) 14.9 (07:40) 19.3 8.33 (17:10) 3.89 (17:10) 0.2 0.2 0 0 0
17-09-2019 28.2 (15:10) 14.3 (00:00) 21.3 9.72 (18:10) 4.17 (15:50) 0.8 0 0 0.8 0
16-09-2019 26.6 (15:50) 13 (00:00) 19.8 5.28 (19:20) 2.5 (19:20) 10.4 0 0.2 0 10.2
15-09-2019 27.7 (14:30) 13.1 (00:00) 20.4 13.61 (15:40) 7.5 (15:40) 3 0 1.2 1.6 0.2
14-09-2019 29.3 (16:40) 14.6 (00:00) 21.9 11.67 (18:30) 5.56 (17:10) 0 0 0 0 0
13-09-2019 25.9 (15:40) 9.1 (00:00) 17.5 10.83 (15:10) 5 (15:20) 0 0 0 0 0
12-09-2019 25.5 (17:00) 9 (00:00) 17.3 7.78 (17:50) 3.61 (18:10) 0 0 0 0 0
11-09-2019 19.8 (17:10) 10.5 (00:00) 15.1 9.44 (17:50) 3.89 (14:20) 0.2 0.2 0 0 0
10-09-2019 14.8 (00:00) 9.4 (06:50) 12.1 10.56 (00:20) 4.17 (18:00) 23 3 6.8 11.6 1.6
09-09-2019 22.4 (15:30) 4.5 (06:10) 13.4 10.83 (16:30) 5.56 (17:00) 0 0 0 0 0
08-09-2019 22.1 (16:50) 8.5 (00:00) 15.3 9.17 (14:30) 4.72 (19:20) 0 0 0 0 0
07-09-2019 21.3 (16:30) 4.7 (00:00) 13 9.72 (14:50) 4.44 (19:20) 0 0 0 0 0
06-09-2019 18.8 (16:10) 10.1 (00:00) 14.4 10.28 (17:20) 5 (17:00) 0.2 0.2 0 0 0
05-09-2019 18.9 (15:40) 12.1 (00:00) 15.5 10.28 (15:50) 4.17 (17:40) 3 0.2 0.6 0.8 1.4
04-09-2019 24.3 (14:40) 4.4 (00:00) 14.3 10.83 (17:00) 5 (16:40) 0 0 0 0 0
03-09-2019 26 (15:50) 5.8 (00:00) 15.9 8.33 (13:00) 4.17 (19:50) 0 0 0 0 0
02-09-2019 21.4 (17:10) 10.6 (00:00) 16 8.61 (14:00) 4.17 (12:20) 0 0 0 0 0
01-09-2019 23.9 (16:30) 14.5 (00:00) 19.2 10.83 (18:00) 5.83 (17:40) 0 0 0 0 0
31-08-2019 32.4 (14:30) 14.4 (00:00) 23.4 12.22 (17:40) 6.94 (17:30) 0 0 0 0 0
30-08-2019 35.7 (17:10) 17.7 (00:00) 26.7 11.39 (19:30) 4.44 (19:30) 0 0 0 0 0
29-08-2019 32.4 (15:20) 17.7 (00:00) 25.1 11.94 (17:50) 5.83 (17:10) 0 0 0 0 0
28-08-2019 31.8 (15:10) 13.9 (00:00) 22.8 10.83 (18:10) 5.28 (18:10) 0 0 0 0 0
27-08-2019 27.7 (17:10) 11.9 (00:00) 19.8 8.33 (20:20) 4.72 (20:20) 0.2 0 0 0.2 0
26-08-2019 30.9 (15:20) 16.1 (00:00) 23.5 14.72 (15:00) 5.56 (16:50) 3.2 0 0 2.6 0.6
25-08-2019 29.7 (14:20) 16.9 (00:00) 23.3 11.11 (16:30) 5.28 (16:30) 0 0 0 0 0
24-08-2019 35.9 (16:50) 9 (00:00) 22.5 10.56 (18:00) 5 (18:10) 0 0 0 0 0
23-08-2019 35.1 (17:30) 5.2 (00:00) 20.1 9.17 (18:30) 4.17 (18:40) 0 0 0 0 0
22-08-2019 28.8 (16:00) 6.2 (00:00) 17.5 8.61 (17:00) 3.89 (17:00) 0 0 0 0 0
21-08-2019 27.4 (16:10) 11.4 (00:00) 19.4 10.28 (19:10) 4.72 (17:40) 0 0 0 0 0

Gráficas

Temp. máximas Temp. mínimas Temp. medias Precipitaciones Rachas de viento máximas Velocidades máximas media en intervalos de 10 minutos

Datos horarios

Fecha y hora oficial Temperatura (ºC) Velocidad del viento (km/h) Dirección del viento Racha (km/h) Dirección de racha Precipitación (mm) Presión (hPa) Tendencia (hPa) Humedad (%)
2019-09-19 23:00:00 17.9 8 Nordeste 16 Nordeste 0 951.7 1.5 76
2019-09-19 22:00:00 19.1 8 Norte 23 Nordeste 0 951.2 1.3 72
2019-09-19 21:00:00 20.1 12 Nordeste 22 Nordeste 0 950.8 0.9 67
2019-09-19 20:00:00 21.8 9 Nordeste 23 Nordeste 0 950.2 0.1 62
2019-09-19 19:00:00 24 9 Norte 22 Nordeste 0 949.9 -0.7 52
2019-09-19 18:00:00 25.2 9 Nordeste 20 Nordeste 0 949.9 -1.4 46
2019-09-19 17:00:00 25.8 8 Norte 18 Nordeste 0 950.1 -2.1 42
2019-09-19 16:00:00 25.5 4 Nordeste 15 Nordeste 0 950.6 -2.2 39
2019-09-19 15:00:00 24.6 5 Oeste 11 Oeste 0 951.3 -2.1 46
2019-09-19 14:00:00 22.2 4 Noroeste 10 Oeste 0 952.2 -1.4 55
2019-09-19 13:00:00 19.2 4 Noroeste 10 Sur 0 952.8 -0.5 70
2019-09-19 12:00:00 15.5 3 Sudeste 8 Sur 0 953.4 0.4 85
2019-09-19 11:00:00 13.7 2 Oeste 8 Oeste 0 953.6 0.8 92
2019-09-19 10:00:00 13.1 0 Calma 7 Nordeste 0 953.3 0.8 93
2019-09-19 09:00:00 12.7 4 Nordeste 7 Nordeste 0 953 0.5 94
2019-09-19 08:00:00 12.5 2 Sur 6 Nordeste 0 952.8 0.2 93
2019-09-19 07:00:00 12.2 4 Nordeste 9 Nordeste 0 952.5 -0.3 94
2019-09-19 06:00:00 11.8 4 Norte 10 Nordeste 0 952.5 -0.5 94
2019-09-19 05:00:00 11.3 2 Norte 9 Norte 0 952.6 -0.6 93
2019-09-19 04:00:00 11.7 5 Nordeste 10 Nordeste 0 952.8 -0.4 92
2019-09-19 03:00:00 12.7 4 Nordeste 9 Nordeste 0 953 0 92
2019-09-19 02:00:00 13.6 5 Nordeste 10 Nordeste 0 953.2 0.2 91
2019-09-19 01:00:00 14.1 2 Este 8 Norte 0 953.2 0.4 90
2019-09-19 00:00:00 15.1 4 Este 8 Nordeste 0 953 0.9 89
2019-09-18 23:00:00 16.2 4 Sudeste 7 Norte 0 953 1.2 86
2019-09-18 22:00:00 17.4 3 Norte 15 Nordeste 0 952.8 1.3 82
2019-09-18 21:00:00 18.9 10 Nordeste 22 Nordeste 0 952.1 1 77
2019-09-18 20:00:00 19.7 6 Nordeste 21 Nordeste 0 951.8 0.7 74
2019-09-18 19:00:00 20.5 9 Nordeste 28 Nordeste 0 951.5 -0.1 69
2019-09-18 18:00:00 21.3 12 Nordeste 30 Nordeste 0 951.1 -0.7 64
2019-09-18 17:00:00 23.4 4 Nordeste 13 Este 0 951.1 -0.5 53
2019-09-18 16:00:00 22.3 5 Nordeste 14 Este 0 951.6 -0.1 57
2019-09-18 15:00:00 21.6 3 Noroeste 6 Oeste 0 951.8 -0.1 62
2019-09-18 14:00:00 21.5 2 Oeste 10 Norte 0 951.6 -0.2 62
2019-09-18 13:00:00 21.6 3 Nordeste 9 Norte 0 951.7 0.4 64
2019-09-18 12:00:00 20.2 4 Sur 9 Oeste 0 951.9 1.1 72
2019-09-18 11:00:00 20 3 Sudoeste 7 Nordeste 0 951.8 1.4 70
2019-09-18 10:00:00 17.4 3 Este 8 Nordeste 0 951.3 1.4 84
2019-09-18 09:00:00 15.2 3 Nordeste 7 Nordeste 0 950.8 1 91
2019-09-18 08:00:00 14.9 4 Sudeste 10 Sudeste 0 950.4 -0.2 91
2019-09-18 07:00:00 15.2 3 Sudeste 7 Norte 0 949.9 -1.5 91
2019-09-18 06:00:00 15.6 3 Norte 11 Nordeste 0 949.8 -1.7 90
2019-09-18 05:00:00 16.5 3 Oeste 6 Sudoeste 0.2 950.6 -0.3 89
2019-09-18 04:00:00 16.4 3 Nordeste 6 Sudoeste 0 951.4 0.3 90
2019-09-18 03:00:00 16.3 0 Calma 9 Sudeste 0 951.5 0.4 88
2019-09-18 02:00:00 15.8 4 Sudeste 9 Norte 0 950.9 -0.1 85
2019-09-18 01:00:00 16.7 5 Norte 10 Norte 0 951.1 0.4 81
2019-09-18 00:00:00 17.2 4 Norte 9 Este 0 951.1 0.4 81
2019-09-17 23:00:00 17.4 4 Oeste 6 Oeste 0 951 1.4 80
2019-09-17 22:00:00 18.9 2 Este 8 Oeste 0 950.7 1.2 74
2019-09-17 21:00:00 21.3 5 Nordeste 15 Noroeste 0 950.7 0.9 63
2019-09-15 18:00:00 19.1 3 Este 22 Sudeste 0 954.7 0.1 74
2019-09-15 17:00:00 18.7 4 Sudeste 23 Sur 1.2 954.9 -0.2 76
2019-09-15 16:00:00 20 13 Sudeste 49 Sudeste 0.4 955.6 0.2 68
2019-09-15 15:00:00 26.6 12 Sudeste 27 Sudeste 0 954.6 -1.7 33
2019-09-15 14:00:00 27.1 6 Sudeste 16 Sur 0 955.1 -1.8 33
2019-09-15 13:00:00 24.1 4 Oeste 10 Noroeste 0 955.4 -1.5 42
2019-09-15 12:00:00 21.4 3 Noroeste 13 Oeste 0 956.3 0 63
2019-09-15 11:00:00 17.2 6 Oeste 17 Sudoeste 0 956.9 0.8 82
2019-09-15 10:00:00 15.2 5 Nordeste 9 Sudeste 1.2 956.9 1 86
2019-09-15 09:00:00 14.1 3 Noroeste 7 Norte 0 956.3 0.4 88
2019-09-15 08:00:00 13.1 3 Nordeste 5 Sur 0 956.1 -0.2 89
2019-09-15 07:00:00 13.4 3 Nordeste 5 Nordeste 0 955.9 -0.7 87
2019-09-15 06:00:00 14.1 2 Nordeste 7 Sudoeste 0 955.9 -0.8 86
2019-09-15 05:00:00 14.5 0 Calma 4 Sudoeste 0 956.3 -0.5 85
2019-09-15 04:00:00 14.8 2 Sudoeste 8 Oeste 0 956.6 -0.7 84
2019-09-15 03:00:00 14.8 0 Calma 7 Nordeste 0 956.7 -0.4 82
2019-09-15 02:00:00 15.5 0 Calma 8 Sudoeste 0 956.8 -0.3 81
2019-09-15 01:00:00 16.4 3 Sudoeste 8 Sudoeste 0 957.3 0.2 77
2019-09-15 00:00:00 17.5 4 Norte 10 Oeste 0 957.1 0.1 72
2019-09-14 23:00:00 19.3 3 Oeste 18 Nordeste 0 957.1 0.5 63
2019-09-14 22:00:00 21 8 Este 18 Nordeste 0 957.1 1 53
2019-09-14 21:00:00 22.3 9 Este 18 Este 0 957 0.9 46
2019-09-14 20:00:00 24.8 7 Este 25 Este 0 956.6 0.5 37
2019-09-14 19:00:00 26.8 17 Este 42 Este 0 956.1 -0.3 30
2019-09-14 18:00:00 27.6 15 Este 37 Este 0 956.1 -0.8 30
2019-09-14 17:00:00 28.3 16 Este 39 Sudeste 0 956.1 -1.7 28
2019-09-14 16:00:00 28.8 16 Este 33 Este 0 956.4 -2.1 25
2019-09-14 15:00:00 28.5 8 Sudeste 28 Sudeste 0 956.9 -2.2 28
2019-09-14 14:00:00 27 9 Sudeste 32 Sudeste 0 957.8 -1.7 30
2019-09-14 13:00:00 25.4 8 Sur 21 Sur 0 958.5 -1.2 37
2019-09-14 12:00:00 22.9 3 Sur 10 Sur 0 959.1 -0.5 49
2019-09-14 11:00:00 21.2 2 Nordeste 8 Noroeste 0 959.5 -0.1 56
2019-09-14 10:00:00 18.1 3 Oeste 7 Noroeste 0 959.7 0.3 70
2019-09-14 09:00:00 15.1 3 Nordeste 5 Sudeste 0 959.6 0.5 87
2019-09-14 08:00:00 14.7 0 Calma 5 Sudoeste 0 959.6 0.3 87
2019-09-14 07:00:00 14.7 0 Calma 5 Sur 0 959.4 -0.3 86
2019-09-14 06:00:00 14.7 0 Calma 7 Nordeste 0 959.1 -0.9 82
2019-09-14 05:00:00 14.6 2 Sudeste 10 Nordeste 0 959.3 -1 82
2019-09-14 04:00:00 15.2 4 Nordeste 10 Nordeste 0 959.7 -1 81
2019-09-14 03:00:00 15.2 3 Sudoeste 8 Norte 0 960 -0.5 83
2019-09-14 02:00:00 15.6 0 Calma 4 Norte 0 960.3 -0.3 81
2019-09-14 01:00:00 17 0 Calma 13 Nordeste 0 960.7 0.2 76
2019-09-14 00:00:00 18.3 8 Nordeste 14 Nordeste 0 960.5 0.5 71
2019-09-13 23:00:00 19 4 Norte 10 Nordeste 0 960.6 1 67
2019-09-13 22:00:00 20.6 5 Este 19 Nordeste 0 960.5 1 56
2019-09-13 21:00:00 21.1 9 Este 23 Nordeste 0 960 0.6 55
2019-09-13 20:00:00 23.6 9 Este 30 Este 0 959.6 0.1 33
2019-09-13 19:00:00 25.6 9 Sudeste 27 Este 0 959.5 -0.8 29
2019-09-13 18:00:00 24.5 15 Nordeste 34 Nordeste 0 959.4 -0.9 44
2019-09-13 17:00:00 25.4 16 Nordeste 33 Nordeste 0 959.5 -1 39
2019-09-13 16:00:00 25.6 16 Nordeste 39 Nordeste 0 960.3 -1.4 37
2019-09-13 15:00:00 25.2 17 Nordeste 32 Nordeste 0 960.3 -2.1 35
2019-09-13 14:00:00 24.6 15 Nordeste 34 Nordeste 0 960.5 -1.7 35
2019-09-13 13:00:00 24.3 14 Nordeste 28 Nordeste 0 961.7 -1 33
2019-09-13 12:00:00 21.3 4 Sudoeste 9 Oeste 0 962.4 -0.2 50
2019-09-13 11:00:00 17 4 Noroeste 9 Noroeste 0 962.2 -0.7 68
2019-09-13 10:00:00 13.8 3 Sudeste 7 Nordeste 0 962.7 -0.2 82
2019-09-13 09:00:00 10 0 Calma 5 Norte 0 962.6 0.1 93
2019-09-13 08:00:00 9.1 0 Calma 5 Sur 0 962.9 0.1 93
2019-09-13 07:00:00 9.4 0 Calma 8 Norte 0 962.9 -0.4 92
2019-09-13 06:00:00 9.6 4 Nordeste 9 Norte 0 962.5 -0.6 92
2019-09-13 05:00:00 10.1 3 Norte 6 Norte 0 962.8 0 92
2019-09-13 04:00:00 10.5 2 Este 7 Sudeste 0 963.3 0.2 91
2019-09-13 03:00:00 11.1 3 Sudeste 7 Sudeste 0 963.1 0 90
2019-09-13 02:00:00 11.9 3 Nordeste 7 Nordeste 0 962.8 0 89
2019-09-13 01:00:00 12.8 3 Noroeste 10 Nordeste 0 963.1 0.5 88
2019-09-13 00:00:00 14.1 3 Nordeste 10 Noroeste 0 963.1 0.8 83
2019-09-12 23:00:00 15.9 6 Norte 14 Norte 0 962.8 0.8 78
2019-09-12 22:00:00 17.4 6 Noroeste 19 Oeste 0 962.6 1 72
2019-09-12 21:00:00 18.3 5 Norte 20 Nordeste 0 962.3 1.1 69
2019-09-12 20:00:00 21.2 9 Nordeste 25 Nordeste 0 962 0.8 58
2019-09-12 19:00:00 23.3 9 Norte 27 Nordeste 0 961.6 -0.2 51
2019-09-12 18:00:00 25 10 Nordeste 28 Norte 0 961.2 -1.3 44
2019-09-12 17:00:00 25.4 9 Norte 23 Nordeste 0 961.2 -1.9 42
2019-09-12 16:00:00 24.8 9 Norte 18 Norte 0 961.8 -1.8 42
2019-09-12 15:00:00 24 7 Oeste 15 Oeste 0 962.5 -1.5 41
2019-09-12 14:00:00 22.9 5 Sudeste 16 Sudeste 0 963.1 -1.1 46
2019-09-12 13:00:00 20.6 6 Sudoeste 12 Sudoeste 0 963.6 -0.4 51
2019-09-12 12:00:00 18.4 5 Sudoeste 14 Noroeste 0 964 0.2 59
2019-09-12 11:00:00 16.7 4 Noroeste 12 Nordeste 0 964.2 0.7 67
2019-09-12 10:00:00 13.2 4 Norte 10 Noroeste 0 964 1 83
2019-09-12 09:00:00 9.8 4 Oeste 10 Norte 0 963.8 0.7 92
2019-09-12 08:00:00 9.2 2 Norte 9 Sudoeste 0 963.5 0.5 92
2019-09-12 07:00:00 9.4 5 Nordeste 8 Nordeste 0 963 0 91
2019-09-12 06:00:00 9.9 0 Calma 6 Nordeste 0 963.1 -0.1 92
2019-09-12 05:00:00 9.5 0 Calma 6 Sur 0 963 -0.6 91
2019-09-12 04:00:00 10.4 3 Sudoeste 8 Noroeste 0 963 -0.5 90
2019-09-12 03:00:00 10.2 3 Noroeste 8 Sudoeste 0 963.2 -0.5 91
2019-09-12 02:00:00 10.9 3 Nordeste 10 Sur 0 963.6 0 90
2019-09-12 01:00:00 10.9 4 Norte 8 Nordeste 0 963.5 0.8 90
2019-09-12 00:00:00 10.5 0 Calma 7 Nordeste 0 963.7 1.6 87
2019-09-11 23:00:00 11.6 4 Sur 8 Norte 0 963.6 2.2 83
2019-09-11 22:00:00 13.3 6 Nordeste 14 Nordeste 0 962.7 1.6 76
2019-09-11 21:00:00 15 4 Nordeste 18 Nordeste 0 962.1 1.1 70
2019-09-11 20:00:00 16.5 10 Nordeste 22 Nordeste 0 961.4 0.6 62
2019-09-11 19:00:00 17.2 9 Nordeste 22 Nordeste 0 961.1 0.3 60
2019-09-11 18:00:00 18.1 8 Nordeste 34 Norte 0 961 0.1 57
2019-09-11 17:00:00 19.3 12 Nordeste 31 Norte 0 960.8 -0.4 53
2019-09-11 16:00:00 18.6 10 Nordeste 30 Norte 0 960.8 -0.5 51
2019-09-11 15:00:00 18.8 10 Norte 29 Nordeste 0 960.9 0 58
2019-09-11 14:00:00 17.6 3 Este 28 Nordeste 0 961.2 0.7 60
2019-09-11 13:00:00 16.1 12 Nordeste 24 Este 0 961.3 1.5 65
2019-09-11 12:00:00 15.4 10 Norte 26 Norte 0 960.9 1.9 68
2019-09-11 11:00:00 14.4 10 Norte 22 Norte 0 960.5 2.2 74
2019-09-11 10:00:00 14.4 2 Nordeste 24 Nordeste 0 959.8 1.9 73
2019-09-11 09:00:00 13.6 6 Norte 20 Norte 0 959 1.2 77
2019-09-11 08:00:00 12.9 8 Norte 27 Norte 0 958.3 0.6 80
2019-09-11 07:00:00 12.7 6 Norte 13 Nordeste 0 957.9 0.5 81
2019-09-11 06:00:00 12.7 4 Noroeste 14 Norte 0 957.8 0.7 82
2019-09-11 05:00:00 12.8 3 Noroeste 13 Norte 0 957.7 0.8 82
2019-09-11 04:00:00 12.8 4 Noroeste 15 Nordeste 0 957.4 0.7 82
2019-09-11 03:00:00 12.7 7 Norte 19 Norte 0.2 957.1 0.6 82
2019-09-11 02:00:00 12.7 2 Norte 19 Norte 0 956.9 0.4 80
2019-09-11 01:00:00 12.8 8 Norte 17 Norte 0 956.7 0.9 78
2019-09-11 00:00:00 12.5 4 Noroeste 22 Norte 0 956.5 1.9 80
2019-09-10 23:00:00 12.5 8 Noroeste 26 Nordeste 0.2 956.5 2.9 83
2019-09-10 22:00:00 13.2 6 Norte 34 Norte 0 955.8 2.8 79
2019-09-10 21:00:00 13 15 Norte 36 Norte 0 954.6 2.5 77
2019-09-10 20:00:00 12.5 9 Norte 30 Norte 0.2 953.6 1.9 80
2019-09-10 19:00:00 12.3 9 Norte 31 Norte 1.2 953 1.8 86
2019-09-10 18:00:00 12.5 15 Norte 35 Norte 1.4 952.1 1.1 83
2019-09-10 17:00:00 12 10 Norte 33 Norte 1.8 951.7 0.4 86
2019-09-10 16:00:00 13.3 12 Norte 25 Norte 0.8 951.2 -0.2 80
2019-09-10 15:00:00 12.4 5 Oeste 22 Oeste 0.4 951 0.8 84
2019-09-10 14:00:00 11.9 5 Oeste 24 Noroeste 2 951.3 0.6 85
2019-09-10 13:00:00 11 5 Noroeste 28 Oeste 5.2 951.4 1.3 86
2019-09-10 12:00:00 13.2 7 Noroeste 31 Noroeste 0.2 950.2 0.3 75
2019-09-10 11:00:00 11.4 8 Oeste 24 Oeste 1.6 950.7 1 82
2019-09-10 10:00:00 9.9 3 Oeste 18 Oeste 1.6 950.1 0.7 88
2019-09-10 09:00:00 9.7 8 Oeste 27 Noroeste 1.2 949.9 0.3 85
2019-09-10 08:00:00 9.9 5 Oeste 16 Oeste 0.6 949.7 0 84
2019-09-10 07:00:00 9.5 4 Oeste 14 Oeste 1.6 949.4 -0.1 85
2019-09-10 06:00:00 9.7 3 Nordeste 20 Oeste 0.8 949.6 -0.2 85
2019-09-10 05:00:00 10 4 Nordeste 30 Oeste 2.2 949.7 -0.5 81
2019-09-10 04:00:00 11.6 7 Noroeste 24 Sudoeste 0 949.5 -0.5 68
2019-09-10 03:00:00 12.2 7 Oeste 26 Noroeste 0 949.8 -0.1 65
2019-09-10 02:00:00 12.8 9 Oeste 30 Sudoeste 0 950.2 0.7 71
2019-09-10 01:00:00 13.5 9 Oeste 38 Norte 0 950 0.8 70
2019-09-10 00:00:00 14.8 12 Noroeste 32 Noroeste 0 949.9 1.1 63
2019-09-09 23:00:00 15 7 Oeste 21 Oeste 0 949.5 1.2 64
2019-09-09 22:00:00 14.9 2 Sudeste 8 Norte 0 949.2 0.9 64
2019-09-09 21:00:00 16 4 Norte 13 Nordeste 0 948.8 0.6 59
2019-09-09 20:00:00 16.9 8 Nordeste 24 Norte 0 948.3 0.1 56
2019-09-09 19:00:00 18.5 11 Nordeste 23 Nordeste 0 948.3 -0.2 50
2019-09-09 18:00:00 19 9 Norte 35 Nordeste 0 948.2 -0.7 48
2019-09-09 17:00:00 20.7 20 Nordeste 39 Nordeste 0 948.2 -1.4 49
2019-09-09 16:00:00 21.8 14 Norte 30 Norte 0 948.5 -2 46
2019-09-09 15:00:00 22 8 Nordeste 18 Norte 0 948.9 -2.4 41
2019-09-09 14:00:00 20.1 3 Este 12 Norte 0 949.6 -2.2 48
2019-09-09 13:00:00 17.8 3 Noroeste 10 Noroeste 0 950.5 -1.4 55
2019-09-09 12:00:00 15 4 Nordeste 11 Nordeste 0 951.3 -0.2 66
2019-09-09 11:00:00 11.8 3 Este 8 Este 0 951.8 -0.1 77
2019-09-09 10:00:00 9.8 2 Nordeste 5 Norte 0 951.9 0.4 88
2019-09-09 09:00:00 8.2 3 Sudeste 6 Sudeste 0 951.5 -0.2 91
2019-09-09 08:00:00 6.4 3 Nordeste 6 Nordeste 0 951.9 -0.3 92
2019-09-09 07:00:00 5.3 0 Calma 6 Norte 0 951.5 -1.5 92
2019-09-09 06:00:00 4.7 2 Nordeste 5 Nordeste 0 951.7 -1.8 90
2019-09-09 05:00:00 5.5 0 Calma 6 Nordeste 0 952.2 -1.8 90
2019-09-09 04:00:00 5.9 0 Calma 4 Este 0 953 -1.1 88
2019-09-09 03:00:00 6.9 3 Nordeste 5 Nordeste 0 953.5 -0.7 88
2019-09-09 02:00:00 8 0 Calma 7 Noroeste 0 954 -0.6 87
2019-09-09 01:00:00 9.1 0 Calma 6 Sudeste 0 954.1 -0.3 83
2019-09-09 00:00:00 10.5 5 Oeste 9 Sudoeste 0 954.2 0.7 80
2019-09-08 23:00:00 12 3 Norte 10 Norte 0 954.6 1.4 76
2019-09-08 22:00:00 13.6 6 Nordeste 17 Nordeste 0 954.4 1.3 69
2019-09-08 21:00:00 14.9 7 Nordeste 24 Nordeste 0 953.5 0.6 65
2019-09-08 20:00:00 17.1 14 Nordeste 31 Nordeste 0 953.2 -0.1 55
2019-09-08 19:00:00 19.7 12 Nordeste 31 Nordeste 0 953.1 -0.6 43
2019-09-08 18:00:00 21 11 Nordeste 29 Nordeste 0 952.9 -1.2 40
2019-09-08 17:00:00 21.7 12 Nordeste 31 Norte 0 953.3 -1.1 40
2019-09-08 16:00:00 20.9 11 Norte 22 Este 0 953.7 -1 41
2019-09-08 15:00:00 21.6 6 Norte 33 Este 0 954.1 -1.1 40
2019-09-08 14:00:00 19.9 12 Nordeste 31 Nordeste 0 954.4 -0.9 47
2019-09-08 13:00:00 19.4 11 Nordeste 22 Nordeste 0 954.7 -0.7 54
2019-09-08 12:00:00 16.6 8 Nordeste 15 Norte 0 955.2 -0.1 69
2019-09-08 11:00:00 15.5 2 Sur 7 Este 0 955.3 0 70
2019-09-08 10:00:00 13.1 0 Calma 6 Nordeste 0 955.4 0.3 77
2019-09-08 09:00:00 10.8 2 Sudeste 5 Nordeste 0 955.3 0.3 85
2019-09-08 08:00:00 10 0 Calma 6 Sudoeste 0 955.3 0.1 88
2019-09-08 07:00:00 10.1 0 Calma 5 Este 0 955.1 -0.5 87
2019-09-08 06:00:00 9.8 0 Calma 6 Oeste 0 955 -1 89
2019-09-08 05:00:00 9 5 Oeste 9 Norte 0 955.2 -1.1 90
2019-09-08 04:00:00 8.6 4 Nordeste 8 Nordeste 0 955.6 -1 89
2019-09-08 03:00:00 9.6 0 Calma 3 Este 0 956 -0.5 88
2019-09-08 02:00:00 10.6 2 Norte 12 Norte 0 956.3 -0.3 85
2019-09-08 01:00:00 11.3 3 Norte 8 Norte 0 956.6 0.1 84
2019-09-08 00:00:00 12.6 5 Sudeste 8 Sudeste 0 956.5 0.4 81
2019-09-07 23:00:00 13.8 4 Este 14 Nordeste 0 956.6 0.9 77
2019-09-07 22:00:00 14.2 7 Nordeste 18 Nordeste 0 956.5 1 76
2019-09-07 21:00:00 14.9 8 Nordeste 27 Nordeste 0 956.1 0.6 71
2019-09-07 20:00:00 17.1 11 Nordeste 28 Nordeste 0 955.7 0.1 59
2019-09-07 19:00:00 19.1 11 Nordeste 30 Norte 0 955.5 -0.4 47
2019-09-07 18:00:00 20.2 12 Norte 26 Nordeste 0 955.5 -0.9 45
2019-09-07 17:00:00 20.8 12 Nordeste 32 Nordeste 0 955.6 -1.3 44
2019-09-07 16:00:00 20.8 9 Norte 30 Norte 0 955.9 -1.2 43
2019-09-07 15:00:00 20.5 11 Nordeste 35 Norte 0 956.4 -1.2 42
2019-09-07 14:00:00 20.5 11 Nordeste 30 Nordeste 0 956.9 -1.3 41
2019-09-07 13:00:00 19.6 8 Nordeste 28 Este 0 957.1 -1.4 46
2019-09-07 12:00:00 17.2 8 Norte 23 Norte 0 957.6 -0.9 54
2019-09-07 11:00:00 14.2 4 Norte 9 Norte 0 958.2 -0.3 64
2019-09-07 10:00:00 10.9 3 Noroeste 9 Nordeste 0 958.5 0.3 75
2019-09-07 09:00:00 7.1 2 Norte 6 Nordeste 0 958.5 0.4 91
2019-09-07 08:00:00 5.6 2 Sudoeste 5 Sudoeste 0 958.5 0.2 92
2019-09-07 07:00:00 5.2 2 Sudoeste 5 Norte 0 958.2 -0.5 91
2019-09-07 06:00:00 5.7 0 Calma 5 Sur 0 958.1 -0.9 90
2019-09-07 05:00:00 6.8 3 Norte 7 Sudoeste 0 958.3 -0.9 89
2019-09-07 04:00:00 8 0 Calma 6 Sudoeste 0 958.7 -0.8 87
2019-09-07 03:00:00 8.9 0 Calma 4 Sur 0 959 -0.5 88
2019-09-07 02:00:00 9.1 2 Oeste 5 Noroeste 0 959.2 -0.4 86
2019-09-07 01:00:00 9.9 0 Calma 6 Oeste 0 959.5 0.2 86
2019-09-07 00:00:00 10.1 0 Calma 9 Norte 0 959.5 0.8 83
2019-09-06 23:00:00 10.2 0 Calma 6 Noroeste 0 959.6 1.3 80
2019-09-06 22:00:00 11.6 2 Nordeste 13 Norte 0 959.3 1.2 74
2019-09-06 21:00:00 13 6 Norte 21 Norte 0 958.7 0.8 68
2019-09-06 20:00:00 14.4 8 Nordeste 28 Nordeste 0 958.3 0.3 61
2019-09-06 19:00:00 16.1 13 Norte 30 Nordeste 0 958.1 0.2 51
2019-09-06 18:00:00 17.2 14 Norte 37 Nordeste 0 957.9 -0.5 46
2019-09-06 17:00:00 17 18 Nordeste 35 Nordeste 0 958 -0.5 46
2019-09-06 16:00:00 18 15 Nordeste 33 Nordeste 0 957.9 -0.9 48
2019-09-06 15:00:00 17.5 15 Nordeste 32 Norte 0 958.4 -0.7 49
2019-09-06 14:00:00 16.9 15 Nordeste 36 Este 0 958.5 -0.5 54
2019-09-06 13:00:00 17.2 11 Nordeste 25 Nordeste 0 958.8 0 55
2019-09-06 12:00:00 14 8 Norte 16 Norte 0 959.1 0.6 77
2019-09-06 11:00:00 13.1 6 Norte 13 Nordeste 0 959 0.6 78
2019-09-06 10:00:00 12.7 2 Nordeste 12 Norte 0 958.8 0.7 80
2019-09-06 09:00:00 11.2 2 Noroeste 5 Noroeste 0 958.5 0 88
2019-09-06 08:00:00 10.7 0 Calma 4 Este 0 958.4 -0.4 89
2019-09-06 07:00:00 10.4 2 Sudeste 5 Este 0 958.1 -0.7 90
2019-09-06 06:00:00 11.1 3 Noroeste 7 Nordeste 0 958.5 -0.4 87
2019-09-06 05:00:00 11.7 3 Norte 14 Nordeste 0 958.8 -0.5 85
2019-09-06 04:00:00 12.1 3 Nordeste 21 Nordeste 0 958.8 -0.9 84
2019-09-06 03:00:00 12.1 3 Norte 8 Nordeste 0.2 958.9 -0.8 87
2019-09-06 02:00:00 12 2 Nordeste 7 Sudoeste 0 959.3 -0.5 89
2019-09-06 01:00:00 12 2 Noroeste 13 Norte 0 959.7 0 84
2019-09-06 00:00:00 12.4 5 Norte 14 Norte 0 959.7 0.3 85
2019-09-05 23:00:00 12.6 6 Noroeste 15 Noroeste 0 959.8 0.4 85
2019-09-05 22:00:00 12.8 3 Nordeste 17 Norte 0.4 959.7 0.6 89
2019-09-05 21:00:00 12.8 5 Nordeste 15 Norte 0.6 959.4 0.3 90
2019-09-05 20:00:00 13.5 5 Norte 23 Norte 0.2 959.4 0.6 85
2019-09-05 19:00:00 14.4 10 Norte 29 Nordeste 0.2 959.1 -0.6 81
2019-09-05 18:00:00 14.1 13 Norte 31 Norte 0.4 959.1 -0.3 84
2019-09-05 17:00:00 16.5 11 Norte 30 Nordeste 0.2 958.8 -0.9 66
2019-09-05 16:00:00 15.1 12 Norte 37 Nordeste 0.2 959.7 -0.2 81
2019-09-05 15:00:00 16.7 13 Norte 34 Norte 0 959.4 -0.5 61
2019-09-05 14:00:00 15.9 7 Nordeste 23 Nordeste 0 959.7 -0.5 65
2019-09-05 13:00:00 15.7 11 Nordeste 24 Nordeste 0 959.9 0.3 67
2019-09-05 12:00:00 16 7 Este 15 Este 0.6 959.9 0.4 71
2019-09-05 11:00:00 13.2 9 Norte 22 Nordeste 0 960.2 0.9 79
2019-09-05 10:00:00 14.3 6 Norte 15 Norte 0 959.6 1 67
2019-09-05 09:00:00 13.2 5 Norte 18 Norte 0 959.5 1.3 73
2019-09-05 08:00:00 12.9 6 Norte 15 Norte 0 959.3 1.4 78
2019-09-05 07:00:00 13 6 Norte 26 Nordeste 0 958.6 0.8 79
2019-09-05 06:00:00 13.1 9 Norte 28 Norte 0 958.2 0.3 82
2019-09-05 05:00:00 13.1 5 Nordeste 12 Nordeste 0.2 957.9 -0.1 90
2019-09-05 04:00:00 13.6 3 Norte 8 Norte 0 957.8 -0.4 86
2019-09-05 03:00:00 13.8 3 Nordeste 8 Norte 0 957.9 -0.3 75
2019-09-05 02:00:00 13.1 2 Norte 5 Este 0 958 -0.4 78
2019-09-05 01:00:00 12.3 2 Sudeste 7 Sudoeste 0 958.2 0 79
2019-09-05 00:00:00 13.7 2 Norte 8 Nordeste 0 958.2 0.7 75
2019-09-04 23:00:00 15.5 3 Norte 15 Nordeste 0 958.4 1.2 71
2019-09-04 22:00:00 16 8 Nordeste 19 Nordeste 0 958.2 1.3 69
2019-09-04 21:00:00 16.9 6 Nordeste 25 Nordeste 0 957.5 1 65
2019-09-04 20:00:00 18.5 9 Norte 29 Nordeste 0 957.2 1 58
2019-09-04 19:00:00 19.2 12 Norte 36 Norte 0 956.9 0.9 57
2019-09-04 18:00:00 21.4 13 Norte 35 Norte 0 956.5 0.4 51
2019-09-04 17:00:00 23.3 18 Nordeste 39 Nordeste 0 956.2 0.1 41
2019-09-04 16:00:00 23.9 17 Nordeste 33 Nordeste 0 956 -0.2 39
2019-09-04 15:00:00 24.1 13 Nordeste 31 Nordeste 0 956.1 -0.5 39
2019-09-04 14:00:00 23.5 10 Norte 31 Norte 0 956.1 -0.5 38
2019-09-04 13:00:00 23.6 9 Nordeste 28 Nordeste 0 956.2 -0.4 32
2019-09-04 12:00:00 20.6 5 Norte 11 Noroeste 0 956.6 0.1 39
2019-09-04 11:00:00 16 4 Oeste 8 Oeste 0 956.6 0.3 53
2019-09-04 10:00:00 11.4 3 Oeste 7 Noroeste 0 956.6 0.7 73
2019-09-04 09:00:00 6.8 3 Sudoeste 7 Norte 0 956.5 0.9 89
2019-09-04 08:00:00 4.5 3 Nordeste 7 Norte 0 956.3 0.6 90
2019-09-04 07:00:00 4.8 2 Nordeste 8 Nordeste 0 955.9 0.1 89
2019-09-04 06:00:00 5.6 3 Nordeste 6 Nordeste 0 955.6 -0.5 88
2019-09-04 05:00:00 6.4 2 Nordeste 5 Nordeste 0 955.7 -0.5 87
2019-09-04 04:00:00 7.5 2 Nordeste 8 Nordeste 0 955.8 -0.7 86
2019-09-04 03:00:00 8.4 4 Nordeste 8 Norte 0 956.1 -0.6 85
2019-09-04 02:00:00 9.3 4 Nordeste 7 Nordeste 0 956.2 -0.6 84
2019-09-04 01:00:00 10.6 0 Calma 4 Nordeste 0 956.5 0.1 81
2019-09-04 00:00:00 12.1 3 Sudeste 12 Norte 0 956.7 0.9 77
2019-09-03 23:00:00 14 4 Nordeste 9 Norte 0 956.8 1.3 70
2019-09-03 22:00:00 16.5 5 Norte 13 Nordeste 0 956.4 1 61
2019-09-03 21:00:00 18.7 9 Nordeste 24 Este 0 955.8 0.4 54
2019-09-03 20:00:00 21.6 13 Nordeste 28 Este 0 955.5 -0.2 43
2019-09-03 19:00:00 23.9 12 Nordeste 29 Nordeste 0 955.4 -0.7 37
2019-09-03 18:00:00 24.8 12 Nordeste 24 Nordeste 0 955.4 -1.1 34
2019-09-03 17:00:00 25.1 12 Norte 25 Nordeste 0 955.7 -1.2 29
2019-09-03 16:00:00 25.4 12 Nordeste 26 Nordeste 0 956.1 -1.4 27
2019-09-03 15:00:00 24 9 Norte 30 Nordeste 0 956.5 -1.6 30
2019-09-03 14:00:00 23.3 12 Norte 26 Nordeste 0 956.9 -1.6 30
2019-09-03 13:00:00 22.4 13 Nordeste 30 Nordeste 0 957.5 -1.1 32
2019-09-03 12:00:00 20.6 10 Nordeste 28 Nordeste 0 958.1 -0.3 43
2019-09-03 11:00:00 16.2 4 Norte 9 Noroeste 0 958.5 0.2 64
2019-09-03 10:00:00 12.2 3 Noroeste 6 Oeste 0 958.6 0.6 76
2019-09-03 09:00:00 7.6 2 Sur 9 Norte 0 958.4 0.5 91
2019-09-03 08:00:00 5.9 0 Calma 5 Nordeste 0 958.3 0.1 92
2019-09-03 07:00:00 6.5 3 Oeste 10 Norte 0 958 -0.6 91
2019-09-03 06:00:00 6.7 3 Sudeste 8 Nordeste 0 957.9 -0.9 91
2019-09-03 05:00:00 7.3 5 Nordeste 9 Norte 0 958.2 -0.8 90
2019-09-03 04:00:00 7.7 3 Nordeste 9 Nordeste 0 958.6 -0.3 89
2019-09-03 03:00:00 8.4 3 Nordeste 9 Norte 0 958.8 -0.2 88
2019-09-03 02:00:00 8.9 0 Calma 5 Nordeste 0 959 0 87
2019-09-03 01:00:00 9.7 2 Nordeste 9 Nordeste 0 958.9 0.4 84
2019-09-03 00:00:00 10.6 4 Norte 8 Nordeste 0 959 1.2 81
2019-09-02 23:00:00 11.9 2 Sur 5 Nordeste 0 959 1.8 78
2019-09-02 22:00:00 13.9 5 Nordeste 15 Nordeste 0 958.5 1.5 69
2019-09-02 21:00:00 15.7 9 Nordeste 24 Nordeste 0 957.8 0.9 63
2019-09-02 20:00:00 17.9 12 Norte 27 Nordeste 0 957.2 0.3 54
2019-09-02 19:00:00 19 13 Nordeste 30 Nordeste 0 957 -0.3 49
2019-09-02 18:00:00 20.4 12 Norte 26 Norte 0 956.9 -0.8 43
2019-09-02 17:00:00 21.2 11 Nordeste 29 Nordeste 0 956.9 -1.1 40
2019-09-02 16:00:00 19.3 10 Nordeste 28 Nordeste 0 957.3 -0.6 46
2019-09-02 15:00:00 19 10 Nordeste 30 Norte 0 957.7 -0.5 47
2019-09-02 14:00:00 17.8 14 Nordeste 31 Nordeste 0 958 -0.2 56
2019-09-02 13:00:00 19.2 9 Nordeste 27 Este 0 957.9 0.2 47
2019-09-02 12:00:00 19.5 10 Nordeste 30 Este 0 958.2 0.5 46
2019-09-02 11:00:00 17.5 8 Noroeste 22 Norte 0 958.2 0.9 50
2019-09-02 10:00:00 16.1 8 Norte 20 Norte 0 957.7 1.1 59
2019-09-02 09:00:00 13.8 5 Nordeste 12 Nordeste 0 957.7 1.3 78
2019-09-02 08:00:00 13.4 3 Norte 15 Nordeste 0 957.3 0.7 77
2019-09-02 07:00:00 13.4 5 Norte 16 Nordeste 0 956.6 -0.1 77
2019-09-02 06:00:00 13.6 4 Norte 18 Nordeste 0 956.4 -0.4 75
2019-09-02 05:00:00 13.7 7 Nordeste 18 Nordeste 0 956.6 -0.4 75
2019-09-02 04:00:00 13.6 5 Nordeste 14 Nordeste 0 956.7 -0.1 77
2019-09-02 03:00:00 13.6 6 Nordeste 21 Nordeste 0 956.8 -0.2 76
2019-09-02 02:00:00 13.9 9 Nordeste 28 Nordeste 0 957 0.4 78
2019-09-02 01:00:00 14.3 6 Nordeste 23 Nordeste 0 956.8 0.8 75
2019-09-02 00:00:00 14.5 8 Norte 22 Nordeste 0 957 2.2 74
2019-09-01 23:00:00 15.1 10 Norte 32 Nordeste 0 956.6 2.8 70
2019-09-01 22:00:00 15.5 10 Nordeste 28 Nordeste 0 956 2.7 78
2019-09-01 21:00:00 16.2 14 Nordeste 34 Nordeste 0 954.8 2 77
2019-09-01 20:00:00 17.2 15 Nordeste 31 Nordeste 0 953.8 1.8 74
2019-09-01 19:00:00 18.6 11 Nordeste 35 Nordeste 0 953.3 1.2 69
2019-09-01 18:00:00 19.9 20 Nordeste 39 Nordeste 0 952.8 0.3 67
2019-09-01 17:00:00 23.2 14 Nordeste 33 Nordeste 0 952 -0.8 52
2019-09-01 16:00:00 23.6 12 Nordeste 24 Norte 0 952.1 -0.9 48
2019-09-01 15:00:00 21.4 9 Nordeste 31 Norte 0 952.5 -0.5 59
2019-09-01 14:00:00 19.8 14 Nordeste 27 Nordeste 0 952.8 -0.1 65
2019-09-01 13:00:00 19.5 13 Nordeste 27 Nordeste 0 953 0.5 67
2019-09-01 12:00:00 20 10 Nordeste 22 Nordeste 0 953 0.9 66
2019-09-01 11:00:00 18.2 5 Nordeste 14 Este 0 952.9 1.1 77
2019-09-01 10:00:00 17 4 Este 16 Nordeste 0 952.5 1.2 87
2019-09-01 09:00:00 17.4 4 Norte 9 Norte 0 952.1 0.8 81
2019-09-01 08:00:00 17.1 3 Noroeste 10 Noroeste 0 951.8 0.2 81
2019-09-01 07:00:00 17.1 4 Noroeste 8 Noroeste 0 951.3 -0.6 80
2019-09-01 06:00:00 16.8 2 Noroeste 6 Oeste 0 951.3 -0.7 82
2019-09-01 05:00:00 16.5 3 Oeste 6 Oeste 0 951.6 -1 83
2019-09-01 04:00:00 16.4 3 Noroeste 6 Nordeste 0 951.9 -0.9 84
2019-09-01 03:00:00 16.4 0 Calma 8 Nordeste 0 952 -0.9 83
2019-09-01 02:00:00 17 0 Calma 5 Norte 0 952.6 -0.1 81
2019-09-01 01:00:00 18 3 Nordeste 10 Norte 0 952.8 0.1 78
2019-09-01 00:00:00 18.6 4 Nordeste 15 Nordeste 0 952.9 0.9 78
2019-08-31 23:00:00 18.7 8 Nordeste 23 Nordeste 0 952.7 1.4 78
2019-08-31 22:00:00 18.9 12 Nordeste 26 Nordeste 0 952.7 1.8 76
2019-08-31 21:00:00 19.2 12 Nordeste 31 Nordeste 0 952 1.7 76
2019-08-31 20:00:00 19.8 15 Nordeste 37 Nordeste 0 951.3 1.9 75
2019-08-31 19:00:00 21.3 23 Nordeste 41 Norte 0 950.9 1.9 69
2019-08-31 18:00:00 23.6 18 Nordeste 44 Nordeste 0 950.3 0.8 61
2019-08-31 17:00:00 26.1 18 Norte 41 Nordeste 0 949.4 -0.7 53
2019-08-31 16:00:00 30.7 17 Nordeste 40 Nordeste 0 949 -1.9 36
2019-08-31 15:00:00 30.8 18 Nordeste 30 Nordeste 0 949.5 -1.8 36
2019-08-31 14:00:00 30.7 6 Norte 17 Norte 0 950.1 -1.6 28
2019-08-31 13:00:00 28.1 4 Sudoeste 10 Sudoeste 0 950.9 -0.9 38
2019-08-31 12:00:00 23.1 3 Sudeste 9 Sudeste 0 951.3 -0.4 60
2019-08-31 11:00:00 17.4 3 Este 6 Este 0 951.7 0.3 89
2019-08-31 10:00:00 16.1 3 Sur 7 Sudoeste 0 951.8 0.6 94
2019-08-31 09:00:00 15.5 3 Sur 6 Sur 0 951.7 0.7 94
2019-08-31 08:00:00 15.1 3 Nordeste 7 Nordeste 0 951.4 0.2 94
2019-08-31 07:00:00 15 0 Calma 6 Nordeste 0 951.2 -0.3 94
2019-08-31 06:00:00 14.4 3 Nordeste 5 Nordeste 0 951 -1.1 92
2019-08-31 05:00:00 14.7 3 Norte 5 Nordeste 0 951.2 -1.2 91
2019-08-31 04:00:00 15.6 3 Nordeste 6 Norte 0 951.5 -1 90
2019-08-31 03:00:00 16.6 0 Calma 4 Este 0 952.1 -0.4 89
2019-08-31 02:00:00 17.7 3 Nordeste 8 Nordeste 0 952.4 -0.5 87
2019-08-31 01:00:00 18.8 2 Norte 12 Noroeste 0 952.5 -0.2 85
2019-08-31 00:00:00 19.4 4 Noroeste 14 Noroeste 0 952.5 0.4 83
2019-08-30 23:00:00 20.8 6 Noroeste 22 Norte 0 952.9 1.2 77
2019-08-30 22:00:00 22.1 8 Norte 21 Norte 0 952.7 1.4 69
2019-08-30 21:00:00 23.4 6 Norte 21 Norte 0 952.1 1.3 65
2019-08-30 20:00:00 25.2 14 Norte 41 Norte 0 951.7 0.8 59
2019-08-30 19:00:00 28.9 14 Norte 32 Nordeste 0 951.3 -0.3 47
2019-08-30 18:00:00 32.5 14 Nordeste 29 Nordeste 0 950.8 -1.8 31
2019-08-30 17:00:00 35.5 5 Oeste 20 Sur 0 950.9 -2.6 17
2019-08-30 16:00:00 33.7 6 Nordeste 19 Norte 0 951.6 -2.9 25
2019-08-30 15:00:00 32 5 Nordeste 14 Nordeste 0 952.6 -2.4 32
2019-08-30 14:00:00 29.8 5 Oeste 13 Nordeste 0 953.5 -1.8 39
2019-08-30 13:00:00 26.8 3 Sur 10 Sudeste 0 954.5 -0.9 47
2019-08-30 12:00:00 23.8 4 Oeste 13 Oeste 0 955 -0.5 56
2019-08-30 11:00:00 22.3 4 Sur 10 Sudeste 0 955.3 0 62
2019-08-30 10:00:00 19.7 3 Sur 6 Sudoeste 0 955.4 0.2 75
2019-08-30 09:00:00 18.4 2 Oeste 7 Sudoeste 0 955.5 0.4 82
2019-08-30 08:00:00 18 3 Sudoeste 7 Sudoeste 0 955.3 0.1 84
2019-08-30 07:00:00 18.1 0 Calma 9 Nordeste 0 955.2 -0.3 83
2019-08-30 06:00:00 18.3 5 Nordeste 11 Nordeste 0 955.1 -0.7 80
2019-08-30 05:00:00 18.5 4 Nordeste 9 Nordeste 0 955.2 -1 78
2019-08-30 04:00:00 18.4 3 Nordeste 12 Nordeste 0 955.5 -0.9 77
2019-08-30 03:00:00 18.4 3 Norte 18 Norte 0 955.8 -0.2 79
2019-08-30 02:00:00 18.4 7 Nordeste 14 Nordeste 0 956.2 0.5 81
2019-08-30 01:00:00 18.1 4 Norte 15 Nordeste 0 956.4 1.1 80
2019-08-30 00:00:00 17.7 5 Norte 15 Norte 0 956 1.3 80
2019-08-29 23:00:00 18.5 4 Norte 15 Nordeste 0 955.7 1.9 78
2019-08-29 22:00:00 19.2 5 Norte 20 Norte 0 955.3 2.2 78
2019-08-29 21:00:00 20.7 6 Norte 24 Nordeste 0 954.7 2.2 72
2019-08-29 20:00:00 22.9 13 Norte 33 Nordeste 0 953.8 1.8 65
2019-08-29 19:00:00 26.6 17 Nordeste 38 Nordeste 0 953.1 0.9 51
2019-08-29 18:00:00 28.6 18 Nordeste 43 Norte 0 952.5 -0.1 45
2019-08-29 17:00:00 30.3 18 Nordeste 37 Nordeste 0 952 -1.2 40
2019-08-29 16:00:00 30 17 Nordeste 31 Nordeste 0 952.2 -1.4 40
2019-08-29 15:00:00 30.9 6 Norte 15 Noroeste 0 952.6 -1.3 35
2019-08-29 14:00:00 29.2 4 Nordeste 19 Nordeste 0 953.2 -0.9 42
2019-08-29 13:00:00 26.2 6 Norte 17 Noroeste 0 953.6 -0.7 51
2019-08-29 12:00:00 25.1 3 Sudeste 14 Sudeste 0 953.9 -0.2 55
2019-08-29 11:00:00 22.9 2 Noroeste 14 Sudeste 0 954.1 0.4 62
2019-08-29 10:00:00 20.9 2 Sur 5 Este 0 954.3 0.9 74
2019-08-29 09:00:00 19.5 3 Norte 7 Norte 0 954.1 0.7 80
2019-08-29 08:00:00 19.1 3 Norte 7 Norte 0 953.7 0.3 81
2019-08-29 07:00:00 19.1 4 Nordeste 8 Nordeste 0 953.4 -0.3 81
2019-08-29 06:00:00 19.1 2 Norte 8 Nordeste 0 953.4 -0.2 81
2019-08-29 05:00:00 19 6 Nordeste 13 Nordeste 0 953.4 -0.5 81
2019-08-29 04:00:00 19.1 7 Nordeste 18 Nordeste 0 953.7 -0.2 80
2019-08-29 03:00:00 19 8 Nordeste 16 Nordeste 0 953.6 -0.2 85
2019-08-29 02:00:00 19.3 3 Sudeste 19 Este 0 953.9 0.2 82
2019-08-29 01:00:00 19.5 6 Nordeste 23 Nordeste 0 953.9 0.7 79
2019-08-29 00:00:00 19.6 10 Nordeste 23 Nordeste 0 953.8 1.3 78
2019-08-28 23:00:00 19.8 8 Nordeste 14 Nordeste 0 953.7 1.8 80
2019-08-28 22:00:00 19.9 4 Norte 18 Nordeste 0 953.2 1.7 80
2019-08-28 21:00:00 20.1 10 Nordeste 25 Nordeste 0 952.5 1.9 80
2019-08-28 20:00:00 22.1 10 Nordeste 32 Nordeste 0 951.9 1.9 70
2019-08-28 19:00:00 22.9 15 Norte 39 Norte 0 951.5 1.4 67
2019-08-28 18:00:00 27.2 16 Nordeste 36 Nordeste 0 950.6 0.1 52
2019-08-28 17:00:00 29.5 16 Nordeste 37 Nordeste 0 950 -0.9 41
2019-08-28 16:00:00 30.5 6 Noroeste 17 Noroeste 0 950.1 -1.3 26
2019-08-28 15:00:00 31.2 4 Este 13 Este 0 950.5 -1.4 30
2019-08-28 14:00:00 28.8 6 Este 14 Nordeste 0 950.9 -1.3 36
2019-08-28 13:00:00 26.2 4 Sudoeste 12 Sudoeste 0 951.4 -0.9 48
2019-08-28 12:00:00 23.2 3 Sudoeste 11 Sudeste 0 951.9 -0.5 59
2019-08-28 11:00:00 19.6 3 Sudeste 9 Sur 0 952.2 0 76
2019-08-28 10:00:00 17.7 2 Oeste 4 Sudoeste 0 952.3 0 87
2019-08-28 09:00:00 16.4 3 Sur 5 Sur 0 952.4 0.2 93
2019-08-28 08:00:00 15.8 3 Sur 5 Sur 0 952.2 0 94
2019-08-28 07:00:00 15.6 0 Calma 4 Este 0 952.3 0.2 94
2019-08-28 06:00:00 15.2 2 Oeste 4 Oeste 0 952.2 0.2 94
2019-08-28 05:00:00 14.5 0 Calma 5 Este 0 952.2 -0.3 93
2019-08-28 04:00:00 14.1 2 Este 6 Norte 0 952.1 -0.5 91
2019-08-28 03:00:00 15.1 3 Norte 6 Este 0 952 -0.7 90
2019-08-28 02:00:00 16.2 0 Calma 7 Nordeste 0 952.5 0.1 88
2019-08-28 01:00:00 17.5 2 Norte 12 Nordeste 0 952.6 0.5 87
2019-08-28 00:00:00 18.2 6 Nordeste 19 Nordeste 0 952.7 1.4 83
2019-08-27 23:00:00 18.7 7 Nordeste 19 Norte 0 952.4 1.8 81
2019-08-27 22:00:00 19.3 9 Norte 23 Nordeste 0 952.1 1.9 79
2019-08-27 21:00:00 20.6 11 Nordeste 30 Nordeste 0 951.3 1.4 73
2019-08-27 20:00:00 23.2 12 Norte 28 Nordeste 0 950.6 0.7 61
2019-08-27 19:00:00 25.7 13 Norte 28 Nordeste 0 950.2 0 50
2019-08-27 18:00:00 26.5 13 Nordeste 25 Nordeste 0 949.9 -0.6 45
2019-08-27 17:00:00 27.6 13 Este 26 Este 0 949.9 -0.9 40
2019-08-27 16:00:00 26.9 10 Nordeste 26 Nordeste 0 950.2 -0.8 41
2019-08-27 15:00:00 26.7 7 Norte 28 Norte 0 950.5 -1 41
2019-08-27 14:00:00 24.9 7 Noroeste 22 Sudeste 0 950.8 -0.9 46
2019-08-27 13:00:00 23.9 5 Oeste 14 Sudoeste 0.2 951 -0.4 51
2019-08-27 12:00:00 21.5 5 Noroeste 13 Oeste 0 951.5 0.5 61
2019-08-27 11:00:00 18.4 4 Oeste 9 Oeste 0 951.7 1.1 73
2019-08-27 10:00:00 14.6 2 Noroeste 5 Noroeste 0 951.4 1.2 89
2019-08-27 09:00:00 12.9 2 Sur 4 Sur 0 951 1.2 94
2019-08-27 08:00:00 12 0 Calma 4 Sur 0 950.6 0.7 93
2019-08-27 07:00:00 12.2 0 Calma 8 Norte 0 950.2 0 93
2019-08-27 06:00:00 12.6 4 Nordeste 6 Sur 0 949.8 -0.9 93
2019-08-27 05:00:00 13.5 2 Oeste 8 Norte 0 949.9 -0.9 92
2019-08-27 04:00:00 14 4 Norte 9 Sudeste 0 950.2 -0.6 92
2019-08-27 03:00:00 14.6 3 Sur 9 Sur 0 950.7 -0.5 91
2019-08-27 02:00:00 15.6 3 Oeste 7 Este 0 950.8 -0.2 90
2019-08-27 01:00:00 16 0 Calma 8 Sudoeste 0 950.8 -0.1 90
2019-08-27 00:00:00 16.7 3 Sur 8 Sudoeste 0 951.2 1.2 87
2019-08-26 23:00:00 17.3 2 Sudoeste 8 Oeste 0 951 2.2 84
2019-08-26 22:00:00 17.8 4 Nordeste 13 Norte 0 950.9 2.2 76
2019-08-26 21:00:00 18.5 5 Nordeste 18 Este 0.4 950 1.3 74
2019-08-26 20:00:00 20.1 6 Oeste 39 Norte 0.2 948.8 -1.1 65
2019-08-26 19:00:00 19.6 9 Este 20 Oeste 0 948.7 -0.1 69
2019-08-26 18:00:00 19.6 5 Sur 31 Oeste 0.6 948.7 0.2 64
2019-08-26 17:00:00 20.3 11 Sudoeste 51 Sur 2 949.9 1 53
2019-08-26 16:00:00 27.7 16 Sur 39 Sudeste 0 948.8 0.4 32
2019-08-26 15:00:00 29.9 13 Sudeste 53 Sudeste 0 948.5 -1.8 27
2019-08-26 14:00:00 28 9 Sudeste 33 Este 0 948.9 -2.1 34
2019-08-26 13:00:00 26.8 8 Norte 22 Sudoeste 0 948.4 -2.3 39
2019-08-26 12:00:00 25.9 7 Sudeste 23 Sudeste 0 950.3 -0.4 46
2019-08-26 11:00:00 21.9 8 Sur 15 Sudeste 0 951 0.7 64
2019-08-26 10:00:00 18.9 2 Sudeste 5 Sudeste 0 950.7 0.6 81
2019-08-26 09:00:00 16.5 2 Noroeste 12 Sudeste 0 950.7 0.1 89
2019-08-26 08:00:00 16.2 0 Calma 8 Este 0 950.3 -0.7 89
2019-08-26 07:00:00 17.3 4 Nordeste 7 Nordeste 0 950.1 -0.9 84
2019-08-26 06:00:00 18.2 2 Noroeste 8 Noroeste 0 950.6 -0.5 82
2019-08-26 05:00:00 18.3 4 Noroeste 9 Norte 0 951 -0.4 82
2019-08-26 04:00:00 18.4 3 Norte 11 Nordeste 0 951 -0.9 81
2019-08-26 03:00:00 18.4 5 Norte 18 Nordeste 0 951.1 -1 81
2019-08-26 02:00:00 18.4 12 Nordeste 19 Nordeste 0 951.4 -0.9 81
2019-08-26 01:00:00 18.6 5 Nordeste 12 Norte 0 951.9 -0.7 80
2019-08-26 00:00:00 18.7 5 Nordeste 14 Nordeste 0 952.1 0.2 79
2019-08-25 23:00:00 18.8 6 Nordeste 16 Nordeste 0 952.3 -0.1 78
2019-08-25 22:00:00 18.9 6 Norte 15 Nordeste 0 952.6 1.8 78
2019-08-25 21:00:00 18.9 7 Norte 18 Nordeste 0 951.9 1.8 78
2019-08-25 20:00:00 19.5 9 Norte 32 Norte 0 952.4 2.6 75
2019-08-25 19:00:00 19.4 14 Norte 40 Norte 0 950.8 1.2 77
2019-08-25 18:00:00 22.4 17 Norte 39 Norte 0 950.1 0 64
2019-08-25 17:00:00 26.1 17 Norte 40 Nordeste 0 949.8 -0.7 51
2019-08-25 16:00:00 27.9 15 Norte 32 Norte 0 949.6 -1.5 46
2019-08-25 15:00:00 28 12 Nordeste 29 Nordeste 0 950.1 -1.8 44
2019-08-25 14:00:00 29.4 6 Oeste 14 Oeste 0 950.5 -1.6 37
2019-08-25 13:00:00 26.5 4 Noroeste 14 Nordeste 0 951.1 -1.1 45
2019-08-25 12:00:00 24.4 6 Nordeste 12 Nordeste 0 951.9 -0.1 51
2019-08-25 11:00:00 21.8 4 Nordeste 9 Nordeste 0 952.1 0.2 61
2019-08-25 10:00:00 19.7 4 Nordeste 12 Nordeste 0 952.2 0.3 70
2019-08-25 09:00:00 17.7 4 Norte 6 Norte 0 952 -0.1 79
2019-08-25 08:00:00 17.3 3 Norte 7 Nordeste 0 951.9 -0.3 82
2019-08-25 07:00:00 17.5 4 Nordeste 10 Nordeste 0 951.9 -0.4 82
2019-08-25 06:00:00 17.7 3 Nordeste 9 Nordeste 0 952.1 -0.3 80
2019-08-25 05:00:00 17.8 4 Nordeste 12 Nordeste 0 952.2 -0.4 81
2019-08-25 04:00:00 17.9 3 Este 12 Nordeste 0 952.3 -0.4 82
2019-08-25 03:00:00 17.8 4 Nordeste 16 Nordeste 0 952.4 -0.4 84
2019-08-25 02:00:00 17.1 4 Norte 11 Nordeste 0 952.6 -0.3 88
2019-08-25 01:00:00 17.3 4 Noroeste 12 Norte 0 952.7 0.6 88
2019-08-25 00:00:00 17.8 5 Norte 18 Norte 0 952.8 1.6 87
2019-08-24 23:00:00 18.6 8 Norte 19 Norte 0 952.9 2.9 82
2019-08-24 22:00:00 19.6 9 Norte 28 Norte 0 952.1 2.1 77
2019-08-24 21:00:00 21.7 11 Norte 35 Nordeste 0 951.2 1.1 67
2019-08-24 20:00:00 27.2 17 Nordeste 36 Nordeste 0 950 -0.2 45
2019-08-24 19:00:00 30.4 14 Nordeste 35 Nordeste 0 950 -0.7 34
2019-08-24 18:00:00 33 17 Nordeste 38 Nordeste 0 950.1 -1 25
2019-08-24 17:00:00 34.3 3 Oeste 15 Sudeste 0 950.2 -1.5 15
2019-08-24 16:00:00 34.3 5 Norte 21 Este 0 950.7 -1.7 14
2019-08-24 15:00:00 34.8 8 Sudeste 21 Sudeste 0 951.1 -2 13
2019-08-24 14:00:00 32.8 5 Sudeste 18 Sudeste 0 951.7 -1.8 20
2019-08-24 13:00:00 29.7 5 Sur 15 Sur 0 952.4 -1.1 25
2019-08-24 12:00:00 26.4 4 Sur 10 Sudeste 0 953.1 -0.5 29
2019-08-24 11:00:00 22.1 3 Sudeste 8 Oeste 0 953.5 0 35
2019-08-24 10:00:00 17.8 2 Este 5 Este 0 953.5 0.3 46
2019-08-24 09:00:00 12.7 2 Nordeste 5 Nordeste 0 953.6 0.6 62
2019-08-24 08:00:00 9.4 3 Nordeste 5 Nordeste 0 953.5 0.6 74
2019-08-24 07:00:00 9.4 2 Este 6 Nordeste 0 953.2 0.2 73
2019-08-24 06:00:00 10.2 2 Nordeste 5 Nordeste 0 953 0 71
2019-08-24 05:00:00 11 0 Calma 6 Nordeste 0 952.9 -0.2 66
2019-08-24 04:00:00 12.6 4 Norte 11 Nordeste 0 953 -0.1 58
2019-08-24 03:00:00 12.8 2 Nordeste 6 Nordeste 0 953 0.1 59
2019-08-24 02:00:00 14.1 0 Calma 10 Nordeste 0 953.1 0.4 57
2019-08-24 01:00:00 15.3 6 Nordeste 10 Nordeste 0 953.1 0.8 53
2019-08-24 00:00:00 17.1 0 Calma 10 Oeste 0 952.9 1.1 49
2019-08-23 23:00:00 19.2 2 Norte 8 Oeste 0 952.7 1.2 44
2019-08-23 22:00:00 22.3 0 Calma 7 Norte 0 952.3 1.2 38
2019-08-23 21:00:00 26.6 4 Norte 22 Norte 0 951.8 1 25
2019-08-23 20:00:00 29.7 10 Norte 31 Nordeste 0 951.5 0.4 19
2019-08-23 19:00:00 31.2 14 Norte 33 Norte 0 951.1 -0.3 20
2019-08-23 18:00:00 34.5 9 Este 18 Nordeste 0 950.8 -1.4 11
2019-08-23 17:00:00 34.3 4 Este 14 Noroeste 0 951.1 -1.8 12
2019-08-23 16:00:00 33.1 8 Norte 18 Norte 0 951.4 -2.2 15
2019-08-23 15:00:00 32.3 4 Oeste 12 Norte 0 952.2 -2.1 19
2019-08-23 14:00:00 29.6 2 Noroeste 12 Sur 0 952.9 -1.9 25
2019-08-23 13:00:00 26.4 4 Sur 13 Sur 0 953.6 -1.5 31
2019-08-23 12:00:00 22.3 5 Sur 12 Sudeste 0 954.3 -1 40
2019-08-23 11:00:00 17.7 4 Sudeste 10 Este 0 954.8 -0.4 54
2019-08-23 10:00:00 12.8 3 Noroeste 6 Noroeste 0 955.1 0.1 69
2019-08-23 09:00:00 8.3 0 Calma 5 Sudeste 0 955.3 0.3 83
2019-08-23 08:00:00 5.5 3 Nordeste 7 Nordeste 0 955.2 0.2 90
2019-08-23 07:00:00 5.5 2 Nordeste 5 Nordeste 0 955 -0.2 89
2019-08-23 06:00:00 6.3 2 Nordeste 6 Nordeste 0 955 -0.2 89
2019-08-23 05:00:00 7 0 Calma 5 Norte 0 955 -0.4 87
2019-08-23 04:00:00 8 3 Nordeste 9 Nordeste 0 955.2 -0.4 85
2019-08-23 03:00:00 9.3 5 Nordeste 9 Nordeste 0 955.2 -0.5 85
2019-08-23 02:00:00 10.5 2 Sudeste 5 Este 0 955.4 -0.3 82
2019-08-23 01:00:00 12.2 2 Sur 9 Norte 0 955.6 0.3 80
2019-08-23 00:00:00 14.2 5 Norte 11 Norte 0 955.7 0.8 71
2019-08-22 23:00:00 15.7 3 Sur 11 Nordeste 0 955.7 1.2 70
2019-08-22 22:00:00 18.7 7 Norte 21 Nordeste 0 955.3 0.9 60
2019-08-22 21:00:00 21.4 7 Norte 26 Nordeste 0 954.9 0.3 49
2019-08-22 20:00:00 24.3 13 Nordeste 26 Nordeste 0 954.5 -0.4 35
2019-08-22 19:00:00 26.4 13 Nordeste 29 Nordeste 0 954.4 -0.9 30
2019-08-22 18:00:00 27.3 13 Nordeste 28 Nordeste 0 954.6 -1.3 27
2019-08-22 17:00:00 28.1 14 Nordeste 31 Nordeste 0 954.9 -1.5 22
2019-08-22 16:00:00 28.7 12 Nordeste 26 Este 0 955.3 -1.6 17
2019-08-22 15:00:00 27.1 11 Nordeste 27 Norte 0 955.9 -1.6 16
2019-08-22 14:00:00 26.1 12 Nordeste 24 Este 0 956.4 -1.4 22
2019-08-22 13:00:00 24.8 10 Nordeste 26 Norte 0 956.9 -1.3 26
2019-08-22 12:00:00 22.1 4 Oeste 15 Norte 0 957.5 -0.5 39
2019-08-22 11:00:00 17.4 4 Oeste 9 Oeste 0 957.8 0.2 57
2019-08-22 10:00:00 13.7 3 Este 6 Sudeste 0 958.2 1 71
2019-08-22 09:00:00 9.2 2 Nordeste 6 Este 0 958 1 87
2019-08-22 08:00:00 6.5 0 Calma 7 Nordeste 0 957.6 0.7 92
2019-08-22 07:00:00 6.7 0 Calma 9 Nordeste 0 957.2 0.2 91
2019-08-22 06:00:00 7.2 3 Nordeste 6 Este 0 957 -0.1 90
2019-08-22 05:00:00 8.5 3 Noroeste 11 Nordeste 0 956.9 -0.7 90
2019-08-22 04:00:00 9.1 2 Este 8 Nordeste 0 957 -0.8 90
2019-08-22 03:00:00 10.5 2 Noroeste 10 Nordeste 0 957.1 -0.8 89
2019-08-22 02:00:00 11 2 Este 6 Nordeste 0 957.6 0 87
2019-08-22 01:00:00 12.5 0 Calma 3 Oeste 0 957.8 0.8 83
2019-08-22 00:00:00 14.1 2 Oeste 8 Oeste 0 957.9 1.8 80
2019-08-21 23:00:00 15.8 3 Oeste 14 Nordeste 0 957.6 2.4 79
2019-08-21 22:00:00 17.2 6 Nordeste 24 Nordeste 0 957 2.6 74
2019-08-21 21:00:00 19.1 8 Nordeste 28 Nordeste 0 956.1 2.2 68
2019-08-21 20:00:00 21.3 13 Nordeste 37 Nordeste 0 955.2 1.4 58
2019-08-21 19:00:00 23.7 14 Nordeste 35 Nordeste 0 954.4 0.8 50
2019-08-21 18:00:00 25 14 Norte 37 Norte 0 953.9 -0.2 46
2019-08-21 17:00:00 26 16 Nordeste 33 Nordeste 0 953.8 -0.8 40
2019-08-21 16:00:00 26.9 12 Nordeste 26 Nordeste 0 953.6 -1.7 35
2019-08-21 15:00:00 26.8 12 Nordeste 25 Norte 0 954.1 -1.6 37
2019-08-21 14:00:00 25 4 Norte 17 Sur 0 954.6 -1.4 37
2019-08-21 13:00:00 23.3 5 Sudoeste 14 Noroeste 0 955.3 -0.9 44
2019-08-21 12:00:00 21.6 3 Oeste 12 Sur 0 955.7 -0.6 51
2019-08-21 11:00:00 19.4 4 Este 11 Sudeste 0 956 -0.1 60
2019-08-21 10:00:00 16.4 3 Nordeste 8 Nordeste 0 956.2 -0.1 72
2019-08-21 09:00:00 13.7 3 Norte 7 Norte 0 956.3 -0.1 82
2019-08-21 08:00:00 11.4 0 Calma 6 Norte 0 956.1 -0.6 90
2019-08-21 07:00:00 11.8 0 Calma 5 Nordeste 0 956.3 -0.7 89
2019-08-21 06:00:00 12.2 0 Calma 8 Este 0 956.4 -1 87
2019-08-21 05:00:00 12.7 0 Calma 4 Sur 0 956.7 -1.1 85
2019-08-21 04:00:00 13.7 2 Sudoeste 14 Nordeste 0 957 -1 80
2019-08-21 03:00:00 14.9 6 Nordeste 17 Nordeste 0 957.4 -0.8 77
2019-08-21 02:00:00 14 2 Este 6 Este 0 957.8 -0.4 81
2019-08-21 01:00:00 13.8 0 Calma 5 Este 0 958 0.5 80
2019-08-21 00:00:00 14 4 Este 12 Oeste 0 958.2 1 79